createdAt,value
2018-06-09T00:01:17.234Z,12.10
2018-06-09T00:03:44.347Z,11.77
2018-06-09T00:06:11.419Z,12.17
2018-06-09T00:08:38.430Z,13.03
2018-06-09T00:11:05.444Z,12.10
2018-06-09T00:13:32.515Z,13.03
2018-06-09T00:15:59.526Z,12.80
2018-06-09T00:18:26.559Z,12.93
2018-06-09T00:20:53.618Z,13.77
2018-06-09T00:23:20.634Z,14.13
2018-06-09T00:25:47.691Z,11.70
2018-06-09T00:28:14.761Z,13.70
2018-06-09T00:30:41.814Z,13.67
2018-06-09T00:33:08.848Z,12.27
2018-06-09T00:35:35.942Z,12.27
2018-06-09T00:38:03.011Z,12.40
2018-06-09T00:40:30.079Z,13.70
2018-06-09T00:42:57.098Z,13.10
2018-06-09T00:45:24.198Z,13.70
2018-06-09T00:47:51.229Z,11.90
2018-06-09T00:50:18.343Z,13.10
2018-06-09T00:52:45.380Z,14.20
2018-06-09T00:55:12.438Z,14.00
2018-06-09T00:57:39.498Z,13.40
2018-06-09T01:00:06.634Z,13.40
2018-06-09T01:02:33.682Z,13.27
2018-06-09T01:05:00.766Z,13.13
2018-06-09T01:07:27.778Z,12.87
2018-06-09T01:09:55.618Z,13.57
2018-06-09T01:12:22.698Z,14.83
2018-06-09T01:14:49.754Z,14.63
2018-06-09T01:17:16.812Z,13.20
2018-06-09T01:19:43.870Z,13.10
2018-06-09T01:22:10.909Z,12.63
2018-06-09T01:24:37.954Z,13.87
2018-06-09T01:27:05.073Z,13.20
2018-06-09T01:29:32.126Z,14.30
2018-06-09T01:31:59.165Z,12.53
2018-06-09T01:34:26.173Z,13.27
2018-06-09T01:36:53.210Z,13.20
2018-06-09T01:39:20.257Z,12.73
2018-06-09T01:41:47.274Z,13.73
2018-06-09T01:44:14.290Z,13.17
2018-06-09T01:46:41.347Z,14.57
2018-06-09T01:49:08.419Z,13.73
2018-06-09T01:51:35.448Z,15.10
2018-06-09T01:54:02.517Z,14.00
2018-06-09T01:56:29.560Z,13.10
2018-06-09T01:58:56.563Z,13.23
2018-06-09T02:01:23.619Z,13.90
2018-06-09T02:03:50.661Z,13.80
2018-06-09T02:06:17.736Z,14.97
2018-06-09T02:08:44.821Z,14.30
2018-06-09T02:11:11.932Z,13.90
2018-06-09T02:13:38.935Z,14.77
2018-06-09T02:16:05.964Z,14.23
2018-06-09T02:18:33.052Z,15.03
2018-06-09T02:21:00.099Z,13.80
2018-06-09T02:23:27.160Z,14.90
2018-06-09T02:25:54.224Z,15.53
2018-06-09T02:28:21.296Z,16.70
2018-06-09T02:30:48.368Z,16.10
2018-06-09T02:33:15.396Z,14.47
2018-06-09T02:35:42.452Z,15.03
2018-06-09T02:38:09.458Z,15.50
2018-06-09T02:40:36.531Z,15.13
2018-06-09T02:43:03.560Z,16.00
2018-06-09T02:45:30.619Z,15.00
2018-06-09T02:47:57.720Z,15.50
2018-06-09T02:50:24.772Z,14.03
2018-06-09T02:52:51.798Z,15.17
2018-06-09T02:55:18.891Z,14.60
2018-06-09T02:57:46.030Z,15.83
2018-06-09T03:00:13.069Z,14.53
2018-06-09T03:02:40.102Z,14.70
2018-06-09T03:05:07.184Z,14.70
2018-06-09T03:07:34.233Z,16.80
2018-06-09T03:10:01.322Z,14.97
2018-06-09T03:12:28.372Z,16.90
2018-06-09T03:14:55.400Z,15.33
2018-06-09T03:17:22.551Z,15.17
2018-06-09T03:19:49.577Z,15.37
2018-06-09T03:22:16.718Z,14.47
2018-06-09T03:24:43.739Z,14.93
2018-06-09T03:27:10.787Z,16.20
2018-06-09T03:29:37.808Z,15.23
2018-06-09T03:32:04.872Z,14.90
2018-06-09T03:34:31.964Z,16.93
2018-06-09T03:36:59.024Z,15.03
2018-06-09T03:39:26.040Z,15.03
2018-06-09T03:41:53.089Z,15.47
2018-06-09T03:44:20.120Z,16.10
2018-06-09T03:46:47.195Z,15.43
2018-06-09T03:49:14.225Z,16.30
2018-06-09T03:51:41.285Z,14.63
2018-06-09T03:54:08.348Z,15.47
2018-06-09T03:56:35.388Z,16.70
2018-06-09T03:59:02.479Z,16.00
2018-06-09T04:01:29.503Z,16.13
2018-06-09T04:03:56.568Z,16.70
2018-06-09T04:06:23.631Z,16.13
2018-06-09T04:08:50.704Z,16.50
2018-06-09T04:11:17.741Z,17.97
2018-06-09T04:13:44.791Z,17.70
2018-06-09T04:16:11.837Z,18.23
2018-06-09T04:18:38.864Z,17.93
2018-06-09T04:21:05.921Z,17.53
2018-06-09T04:23:33.051Z,19.67
2018-06-09T04:26:00.094Z,18.70
2018-06-09T04:28:27.099Z,17.90
2018-06-09T04:30:54.143Z,18.23
2018-06-09T04:33:21.171Z,17.97
2018-06-09T04:35:48.248Z,18.63
2018-06-09T04:38:15.296Z,19.23
2018-06-09T04:40:42.315Z,18.87
2018-06-09T04:43:09.355Z,19.03
2018-06-09T04:45:36.396Z,19.53
2018-06-09T04:48:03.647Z,17.17
2018-06-09T04:50:30.799Z,19.47
2018-06-09T04:52:57.852Z,19.37
2018-06-09T04:55:24.907Z,18.20
2018-06-09T04:57:51.928Z,18.03
2018-06-09T05:00:19.016Z,18.07
2018-06-09T05:02:46.094Z,20.07
2018-06-09T05:05:13.154Z,18.93
2018-06-09T05:07:40.201Z,19.50
2018-06-09T05:10:07.215Z,18.40
2018-06-09T05:12:34.268Z,18.90
2018-06-09T05:15:01.294Z,18.47
2018-06-09T05:17:28.399Z,18.10
2018-06-09T05:19:55.415Z,19.73
2018-06-09T05:22:22.483Z,18.13
2018-06-09T05:24:49.584Z,19.53
2018-06-09T05:27:16.673Z,19.23
2018-06-09T05:29:43.708Z,14.70
2018-06-09T05:32:10.725Z,17.03
2018-06-09T05:34:37.780Z,17.60
2018-06-09T05:37:04.807Z,18.53
2018-06-09T05:39:31.920Z,18.23
2018-06-09T05:41:58.933Z,18.97
2018-06-09T05:44:26.007Z,17.57
2018-06-09T05:46:53.077Z,17.67
2018-06-09T05:49:20.112Z,18.50
2018-06-09T05:51:47.173Z,18.10
2018-06-09T05:54:14.203Z,18.47
2018-06-09T05:56:41.251Z,18.00
2018-06-09T05:59:08.308Z,17.03
2018-06-09T06:01:35.510Z,17.97
2018-06-09T06:04:02.656Z,17.10
2018-06-09T06:06:29.675Z,20.67
2018-06-09T06:08:56.699Z,17.80
2018-06-09T06:11:23.756Z,18.33
2018-06-09T06:13:50.776Z,18.40
2018-06-09T06:16:17.880Z,18.10
2018-06-09T06:18:44.970Z,17.63
2018-06-09T06:21:11.959Z,17.47
2018-06-09T06:23:39.012Z,16.40
2018-06-09T06:26:06.085Z,17.30
2018-06-09T06:28:33.139Z,17.30
2018-06-09T06:31:00.244Z,17.97
2018-06-09T06:33:27.271Z,16.43
2018-06-09T06:35:54.324Z,15.97
2018-06-09T06:38:21.382Z,16.90
2018-06-09T06:40:48.437Z,18.03
2018-06-09T06:43:15.521Z,18.63
2018-06-09T06:45:42.556Z,16.43
2018-06-09T06:48:09.560Z,16.97
2018-06-09T06:50:36.687Z,17.23
2018-06-09T06:53:03.752Z,16.30
2018-06-09T06:55:30.788Z,17.07
2018-06-09T06:57:57.823Z,16.07
2018-06-09T07:00:24.907Z,17.53
2018-06-09T07:02:51.947Z,18.33
2018-06-09T07:05:19.007Z,17.10
2018-06-09T07:07:46.027Z,17.93
2018-06-09T07:10:13.084Z,17.23
2018-06-09T07:12:40.096Z,16.30
2018-06-09T07:15:07.211Z,15.70
2018-06-09T07:17:34.228Z,15.90
2018-06-09T07:20:01.285Z,16.60
2018-06-09T07:22:28.380Z,16.47
2018-06-09T07:24:55.474Z,15.73
2018-06-09T07:27:22.628Z,16.17
2018-06-09T07:29:49.767Z,17.20
2018-06-09T07:32:16.955Z,18.00
2018-06-09T07:34:44.069Z,15.90
2018-06-09T07:37:11.220Z,16.67
2018-06-09T07:39:38.327Z,16.30
2018-06-09T07:42:05.431Z,15.10
2018-06-09T07:44:32.558Z,15.90
2018-06-09T07:46:59.668Z,15.23
2018-06-09T07:49:26.803Z,16.57
2018-06-09T07:51:53.913Z,16.10
2018-06-09T07:54:21.040Z,16.00
2018-06-09T07:56:48.232Z,16.37
2018-06-09T07:59:15.392Z,16.00
2018-06-09T08:01:42.493Z,16.30
2018-06-09T08:04:09.636Z,15.73
2018-06-09T08:06:36.768Z,15.80
2018-06-09T08:09:04.698Z,15.80
2018-06-09T08:11:31.832Z,15.67
2018-06-09T08:13:58.988Z,14.90
2018-06-09T08:16:26.124Z,15.60
2018-06-09T08:18:53.331Z,16.17
2018-06-09T08:21:20.464Z,15.83
2018-06-09T08:23:47.576Z,16.37
2018-06-09T08:26:14.707Z,16.57
2018-06-09T08:28:41.842Z,15.70
2018-06-09T08:31:08.943Z,14.00
2018-06-09T08:33:36.099Z,14.60
2018-06-09T08:36:03.294Z,16.20
2018-06-09T08:38:30.379Z,15.40
2018-06-09T08:40:57.542Z,14.97
2018-06-09T08:43:24.633Z,13.93
2018-06-09T08:45:51.730Z,14.77
2018-06-09T08:48:18.911Z,15.00
2018-06-09T08:50:46.030Z,14.90
2018-06-09T08:53:13.157Z,15.53
2018-06-09T08:55:40.251Z,14.60
2018-06-09T08:58:07.415Z,15.27
2018-06-09T09:00:34.511Z,14.80
2018-06-09T09:03:01.611Z,14.27
2018-06-09T09:05:28.816Z,16.80
2018-06-09T09:07:55.915Z,15.50
2018-06-09T09:10:23.052Z,16.37
2018-06-09T09:12:50.171Z,15.50
2018-06-09T09:15:17.359Z,16.40
2018-06-09T09:17:44.514Z,15.33
2018-06-09T09:20:11.696Z,14.63
2018-06-09T09:22:38.791Z,16.07
2018-06-09T09:25:05.937Z,14.77
2018-06-09T09:27:33.087Z,16.27
2018-06-09T09:30:00.213Z,14.83
2018-06-09T09:32:27.356Z,14.73
2018-06-09T09:34:54.461Z,15.63
2018-06-09T09:37:21.604Z,15.83
2018-06-09T09:39:48.753Z,15.57
2018-06-09T09:42:15.898Z,17.10
2018-06-09T09:44:43.027Z,15.90
2018-06-09T09:47:10.112Z,15.27
2018-06-09T09:49:37.236Z,14.50
2018-06-09T09:52:04.413Z,16.50
2018-06-09T09:54:31.520Z,14.27
2018-06-09T09:56:58.633Z,14.50
2018-06-09T09:59:25.764Z,14.40
2018-06-09T10:01:52.903Z,13.27
2018-06-09T10:04:20.028Z,12.60
2018-06-09T10:06:47.199Z,13.10
2018-06-09T10:09:14.353Z,12.73
2018-06-09T10:11:41.486Z,14.17
2018-06-09T10:14:08.594Z,15.00
2018-06-09T10:16:35.684Z,15.30
2018-06-09T10:19:02.824Z,14.60
2018-06-09T10:21:29.915Z,15.27
2018-06-09T10:23:57.039Z,13.90
2018-06-09T10:26:24.171Z,14.60
2018-06-09T10:28:51.304Z,14.97
2018-06-09T10:31:18.425Z,15.27
2018-06-09T10:33:45.576Z,14.47
2018-06-09T10:36:12.679Z,13.47
2018-06-09T10:38:39.831Z,12.93
2018-06-09T10:41:06.972Z,14.50
2018-06-09T10:43:34.078Z,13.97
2018-06-09T10:46:01.216Z,14.10
2018-06-09T10:48:28.619Z,14.50
2018-06-09T10:50:55.632Z,13.13
2018-06-09T10:53:22.696Z,13.97
2018-06-09T10:55:49.752Z,13.07
2018-06-09T10:58:16.843Z,12.70
2018-06-09T11:00:43.943Z,12.23
2018-06-09T11:03:10.968Z,13.53
2018-06-09T11:05:38.022Z,13.10
2018-06-09T11:08:05.051Z,11.90
2018-06-09T11:10:32.179Z,12.30
2018-06-09T11:12:59.236Z,12.10
2018-06-09T11:15:26.293Z,11.17
2018-06-09T11:17:53.308Z,12.30
2018-06-09T11:20:20.364Z,11.70
2018-06-09T11:22:47.435Z,10.80
2018-06-09T11:25:14.524Z,12.30
2018-06-09T11:27:41.557Z,11.53
2018-06-09T11:30:08.610Z,12.27
2018-06-09T11:32:35.667Z,12.63
2018-06-09T11:35:02.811Z,10.90
2018-06-09T11:37:29.935Z,10.77
2018-06-09T11:39:57.040Z,12.33
2018-06-09T11:42:24.191Z,11.13
2018-06-09T11:44:51.302Z,10.50
2018-06-09T11:47:18.456Z,11.43
2018-06-09T11:49:45.591Z,12.30
2018-06-09T11:52:12.731Z,10.50
2018-06-09T11:54:39.868Z,10.60
2018-06-09T11:57:06.965Z,11.00
2018-06-09T11:59:34.101Z,11.23
2018-06-09T12:02:01.591Z,11.23
2018-06-09T12:04:28.707Z,11.37
2018-06-09T12:06:55.858Z,10.67
2018-06-09T12:09:28.789Z,11.27
2018-06-09T12:11:55.904Z,12.20
2018-06-09T12:14:23.059Z,11.63
2018-06-09T12:16:50.212Z,11.70
2018-06-09T12:19:17.397Z,11.03
2018-06-09T12:21:44.665Z,11.13
2018-06-09T12:24:11.780Z,11.77
2018-06-09T12:26:38.931Z,11.60
2018-06-09T12:29:06.091Z,10.77
2018-06-09T12:31:33.528Z,11.30
2018-06-09T12:34:00.646Z,11.33
2018-06-09T12:36:27.891Z,11.23
2018-06-09T12:38:55.154Z,10.40
2018-06-09T12:41:22.303Z,10.80
2018-06-09T12:43:49.614Z,10.17
2018-06-09T12:46:16.865Z,11.20
2018-06-09T12:48:44.255Z,11.37
2018-06-09T12:51:11.363Z,11.53
2018-06-09T12:53:38.507Z,10.37
2018-06-09T12:56:05.631Z,11.60
2018-06-09T12:58:32.800Z,10.90
2018-06-09T13:00:59.948Z,10.80
2018-06-09T13:03:27.095Z,11.03
2018-06-09T13:05:54.407Z,10.63
2018-06-09T13:08:21.751Z,11.80
2018-06-09T13:10:49.036Z,11.70
2018-06-09T13:13:16.258Z,11.50
2018-06-09T13:15:43.585Z,11.27
2018-06-09T13:18:10.764Z,10.10
2018-06-09T13:20:38.163Z,10.50
2018-06-09T13:23:05.447Z,11.80
2018-06-09T13:25:32.571Z,11.00
2018-06-09T13:27:59.832Z,12.03
2018-06-09T13:30:26.960Z,11.40
2018-06-09T13:32:54.126Z,11.90
2018-06-09T13:35:21.352Z,12.50
2018-06-09T13:37:48.926Z,11.50
2018-06-09T13:40:16.212Z,11.50
2018-06-09T13:42:43.427Z,11.70
2018-06-09T13:45:10.772Z,11.40
2018-06-09T13:47:38.109Z,12.20
2018-06-09T13:50:05.524Z,12.23
2018-06-09T13:52:32.776Z,11.27
2018-06-09T13:54:59.944Z,12.80
2018-06-09T13:57:27.073Z,11.23
2018-06-09T13:59:54.179Z,11.03
2018-06-09T14:02:21.544Z,11.30
2018-06-09T14:04:48.715Z,10.67
2018-06-09T14:07:16.036Z,11.47
2018-06-09T14:09:43.406Z,10.30
2018-06-09T14:12:10.611Z,11.00
2018-06-09T14:14:37.731Z,11.80
2018-06-09T14:17:04.970Z,11.40
2018-06-09T14:19:32.155Z,11.70
2018-06-09T14:21:59.298Z,12.20
2018-06-09T14:24:26.464Z,12.10
2018-06-09T14:26:53.694Z,11.07
2018-06-09T14:29:20.911Z,12.43
2018-06-09T14:31:48.299Z,12.07
2018-06-09T14:34:15.528Z,11.87
2018-06-09T14:36:42.804Z,11.00
2018-06-09T14:39:09.925Z,10.83
2018-06-09T14:41:37.148Z,11.00
2018-06-09T14:44:04.394Z,11.50
2018-06-09T14:46:31.590Z,11.10
2018-06-09T14:48:58.714Z,11.87
2018-06-09T14:51:25.877Z,11.50
2018-06-09T14:53:53.077Z,11.50
2018-06-09T14:56:20.279Z,11.73
2018-06-09T14:58:47.595Z,11.00
2018-06-09T15:01:14.895Z,11.20
2018-06-09T15:03:42.034Z,11.50
2018-06-09T15:06:09.175Z,10.60
2018-06-09T15:08:36.373Z,10.37
2018-06-09T15:11:03.554Z,12.00
2018-06-09T15:13:30.674Z,11.33
2018-06-09T15:15:57.822Z,10.80
2018-06-09T15:18:24.951Z,10.40
2018-06-09T15:20:52.111Z,10.30
2018-06-09T15:23:19.442Z,11.43
2018-06-09T15:25:47.071Z,11.20
2018-06-09T15:28:14.413Z,13.50
2018-06-09T15:30:41.594Z,13.47
2018-06-09T15:33:08.870Z,11.87
2018-06-09T15:35:36.097Z,14.60
2018-06-09T15:38:03.268Z,14.93
2018-06-09T15:40:30.391Z,15.27
2018-06-09T15:42:57.547Z,14.00
2018-06-09T15:45:24.717Z,12.27
2018-06-09T15:47:51.863Z,13.63
2018-06-09T15:50:19.100Z,14.30
2018-06-09T15:52:46.385Z,14.00
2018-06-09T15:55:13.629Z,12.37
2018-06-09T15:57:40.780Z,12.67
2018-06-09T16:00:07.964Z,10.20
2018-06-09T16:02:35.235Z,10.37
2018-06-09T16:05:02.358Z,10.07
2018-06-09T16:07:29.500Z,10.63
2018-06-09T16:09:56.652Z,10.87
2018-06-09T16:12:23.791Z,11.57
2018-06-09T16:14:51.368Z,10.73
2018-06-09T16:17:18.689Z,10.07
2018-06-09T16:19:46.015Z,10.57
2018-06-09T16:22:13.205Z,9.97
2018-06-09T16:24:40.334Z,11.00
2018-06-09T16:27:07.640Z,9.40
2018-06-09T16:29:34.767Z,11.00
2018-06-09T16:32:01.952Z,10.13
2018-06-09T16:34:29.111Z,10.03
2018-06-09T16:36:56.259Z,11.33
2018-06-09T16:39:23.393Z,10.00
2018-06-09T16:41:50.651Z,10.40
2018-06-09T16:44:17.915Z,9.67
2018-06-09T16:46:45.150Z,10.73
2018-06-09T16:49:12.307Z,9.90
2018-06-09T16:51:39.487Z,10.67
2018-06-09T16:54:06.610Z,9.70
2018-06-09T16:56:33.730Z,9.60
2018-06-09T16:59:00.908Z,11.27
2018-06-09T17:01:28.028Z,9.50
2018-06-09T17:03:55.206Z,10.57
2018-06-09T17:06:22.424Z,9.20
2018-06-09T17:08:49.704Z,9.80
2018-06-09T17:11:17.051Z,9.23
2018-06-09T17:13:44.347Z,9.03
2018-06-09T17:16:11.503Z,8.70
2018-06-09T17:18:38.720Z,8.70
2018-06-09T17:21:05.863Z,9.50
2018-06-09T17:23:33.079Z,10.73
2018-06-09T17:26:00.243Z,9.00
2018-06-09T17:28:27.308Z,9.10
2018-06-09T17:30:54.462Z,9.80
2018-06-09T17:33:21.528Z,9.10
2018-06-09T17:35:48.623Z,8.63
2018-06-09T17:38:15.725Z,8.97
2018-06-09T17:40:42.850Z,8.03
2018-06-09T17:43:09.954Z,8.77
2018-06-09T17:45:37.046Z,8.77
2018-06-09T17:48:04.140Z,8.80
2018-06-09T17:50:31.216Z,8.77
2018-06-09T17:52:58.308Z,8.43
2018-06-09T17:55:25.456Z,7.37
2018-06-09T17:57:52.635Z,8.27
2018-06-09T18:00:19.867Z,7.73
2018-06-09T18:02:47.098Z,8.10
2018-06-09T18:05:15.265Z,7.47
2018-06-09T18:07:42.440Z,7.57
2018-06-09T18:10:09.481Z,8.60
2018-06-09T18:12:36.551Z,8.23
2018-06-09T18:15:03.588Z,9.13
2018-06-09T18:17:30.595Z,8.73
2018-06-09T18:19:57.652Z,8.37
2018-06-09T18:22:24.668Z,7.73
2018-06-09T18:24:51.768Z,7.10
2018-06-09T18:27:18.895Z,8.67
2018-06-09T18:29:45.944Z,7.50
2018-06-09T18:32:13.009Z,7.53
2018-06-09T18:34:40.144Z,7.83
2018-06-09T18:37:07.221Z,7.53
2018-06-09T18:39:34.316Z,8.43
2018-06-09T18:42:01.376Z,7.80
2018-06-09T18:44:28.497Z,9.30
2018-06-09T18:46:55.544Z,8.20
2018-06-09T18:49:22.571Z,8.00
2018-06-09T18:51:49.700Z,7.90
2018-06-09T18:54:16.775Z,9.93
2018-06-09T18:56:43.790Z,9.37
2018-06-09T18:59:10.856Z,9.40
2018-06-09T19:01:37.928Z,8.60
2018-06-09T19:04:05.221Z,8.80
2018-06-09T19:06:32.215Z,10.03
2018-06-09T19:08:59.272Z,10.13
2018-06-09T19:11:26.323Z,8.70
2018-06-09T19:13:53.343Z,9.03
2018-06-09T19:16:20.459Z,10.27
2018-06-09T19:18:47.568Z,10.13
2018-06-09T19:21:14.619Z,8.40
2018-06-09T19:23:41.645Z,8.63
2018-06-09T19:26:08.688Z,8.80
2018-06-09T19:28:35.760Z,10.50
2018-06-09T19:31:02.815Z,9.63
2018-06-09T19:33:29.863Z,10.40
2018-06-09T19:35:57.035Z,9.33
2018-06-09T19:38:24.110Z,9.63
2018-06-09T19:40:51.178Z,10.00
2018-06-09T19:43:18.532Z,9.70
2018-06-09T19:45:45.675Z,9.93
2018-06-09T19:48:12.707Z,9.90
2018-06-09T19:50:39.740Z,10.50
2018-06-09T19:53:06.806Z,10.40
2018-06-09T19:55:33.837Z,10.10
2018-06-09T19:58:01.256Z,10.47
2018-06-09T20:00:28.311Z,11.70
2018-06-09T20:02:55.341Z,11.40
2018-06-09T20:05:22.452Z,11.73
2018-06-09T20:07:49.546Z,11.00
2018-06-09T20:10:16.612Z,14.77
2018-06-09T20:12:43.688Z,12.07
2018-06-09T20:15:10.769Z,13.40
2018-06-09T20:17:37.792Z,11.83
2018-06-09T20:20:04.828Z,13.40
2018-06-09T20:22:31.866Z,13.40
2018-06-09T20:24:58.916Z,12.57
2018-06-09T20:27:26.000Z,11.40
2018-06-09T20:29:53.052Z,12.03
2018-06-09T20:32:20.111Z,12.47
2018-06-09T20:34:47.200Z,11.17
2018-06-09T20:37:14.302Z,12.40
2018-06-09T20:39:41.364Z,15.80
2018-06-09T20:42:08.395Z,12.77
2018-06-09T20:44:35.444Z,14.07
2018-06-09T20:47:02.476Z,11.17
2018-06-09T20:49:29.531Z,11.50
2018-06-09T20:51:56.556Z,11.13
2018-06-09T20:54:23.734Z,10.47
2018-06-09T20:56:50.723Z,10.60
2018-06-09T20:59:17.801Z,10.03
2018-06-09T21:01:44.914Z,11.53
2018-06-09T21:04:12.002Z,11.10
2018-06-09T21:06:39.060Z,11.30
2018-06-09T21:09:06.572Z,9.50
2018-06-09T21:11:33.638Z,11.00
2018-06-09T21:14:00.671Z,9.30
2018-06-09T21:16:27.733Z,10.93
2018-06-09T21:18:54.762Z,13.93
2018-06-09T21:21:21.833Z,15.07
2018-06-09T21:23:48.876Z,13.63
2018-06-09T21:26:15.912Z,12.27
2018-06-09T21:28:48.752Z,12.93
2018-06-09T21:31:16.784Z,13.07
2018-06-09T21:34:01.492Z,12.10
2018-06-09T21:36:34.128Z,13.63
2018-06-09T21:39:09.845Z,12.33
2018-06-09T21:41:43.232Z,13.77
2018-06-09T21:44:18.664Z,15.30
2018-06-09T21:46:46.144Z,13.30
2018-06-09T21:49:14.083Z,13.60
2018-06-09T21:51:41.169Z,13.63
2018-06-09T21:54:08.191Z,12.67
2018-06-09T21:56:35.255Z,12.57
2018-06-09T21:59:02.281Z,13.47
2018-06-09T22:01:29.335Z,15.13
2018-06-09T22:03:56.373Z,13.80
2018-06-09T22:06:23.456Z,13.20
2018-06-09T22:08:50.476Z,13.50
2018-06-09T22:11:17.585Z,12.27
2018-06-09T22:13:44.683Z,13.30
2018-06-09T22:16:11.700Z,12.70
2018-06-09T22:18:38.757Z,12.87
2018-06-09T22:21:05.787Z,12.83
2018-06-09T22:23:32.884Z,13.30
2018-06-09T22:25:59.947Z,12.20
2018-06-09T22:28:27.265Z,12.90
2018-06-09T22:30:54.318Z,14.07
2018-06-09T22:33:21.474Z,14.00
2018-06-09T22:35:48.505Z,13.60
2018-06-09T22:38:15.607Z,13.17
2018-06-09T22:40:42.644Z,14.90
2018-06-09T22:43:09.696Z,12.97
2018-06-09T22:45:36.747Z,13.30
2018-06-09T22:48:03.781Z,12.90
2018-06-09T22:50:30.855Z,12.47
2018-06-09T22:52:57.883Z,13.60
2018-06-09T22:55:24.935Z,13.60
2018-06-09T22:57:51.953Z,12.70
2018-06-09T23:00:26.318Z,14.27
2018-06-09T23:02:53.332Z,13.53
2018-06-09T23:05:20.404Z,14.47
2018-06-09T23:07:47.459Z,14.30
2018-06-09T23:10:14.568Z,14.80
2018-06-09T23:12:41.668Z,14.43
2018-06-09T23:15:08.723Z,13.43
2018-06-09T23:17:35.727Z,13.40
2018-06-09T23:20:03.154Z,14.50
2018-06-09T23:22:30.203Z,14.80
2018-06-09T23:24:57.260Z,13.87
2018-06-09T23:27:24.312Z,14.03
2018-06-09T23:29:51.348Z,14.83
2018-06-09T23:32:18.423Z,14.57
2018-06-09T23:34:45.523Z,15.77
2018-06-09T23:37:12.572Z,14.37
2018-06-09T23:39:39.632Z,15.30
2018-06-09T23:42:06.729Z,14.37
2018-06-09T23:44:33.747Z,16.40
2018-06-09T23:47:00.907Z,15.03
2018-06-09T23:49:27.922Z,13.43
2018-06-09T23:51:54.984Z,13.90
2018-06-09T23:54:21.994Z,14.10
2018-06-09T23:56:49.089Z,16.90
2018-06-09T23:59:16.184Z,15.70
